la Nucia, Spain
Current Conditions -  °F | °C
As of 11:00 AM on Sunday 23 Nov 2014 (Local Time) from LEAL Reporting Station
Scattered Clouds Scattered Clouds  
Wind Chill: 70°   Ceiling: Unl
Heat Index: 70°   Visibility: 6mi
Dew Point: 55°   Wind: 14mph
Humidity: 60%   Direction: 50°NE
Pressure: 29.97"   Gusts: NA
Location:  38.61°N, 0.13°W
Report Text: LEAL 231000Z 05012KT 9999 FEW025 SCT045 21/13 Q1015 NOSIG
Loading
Personal Weather Stations






























Interactive Weather Map New forecast layout! Learn more

10-Day Weather Forecast

Advertisements
Track Severe Weather on mobile